Falcon AFB, Colorado
Current Conditions -  °F | °C
As of 2:54 PM on Sunday 21 Dec 2014 (Local Time) from KCOS Reporting Station
Overcast Overcast  
Wind Chill: 50°   Ceiling: 21000
Heat Index: 50°   Visibility: 10mi
Dew Point: 22°   Wind: 25mph
Humidity: 33%   Direction: 300°WNW
Pressure: 29.59"   Gusts: 33mph
Location:  38.8334°N, 104.82°W
Report Text: KCOS 212154Z 30022G29KT 10SM FEW070 SCT100 OVC210 10/M06 A2959 RMK AO2 PK WND 30034/2114 SLP016 VCSH OMTNS W T01001056
Loading
Personal Weather Stations






























Interactive Weather Map New forecast layout! Learn more

10-Day Weather Forecast

Advertisements
Track Severe Weather on mobile